createdAt,value
2022-09-07T00:03:07.016Z,99163.23
2022-09-07T00:06:20.797Z,99163.13
2022-09-07T00:09:33.757Z,99166.98
2022-09-07T00:12:46.269Z,99173.73
2022-09-07T00:15:59.220Z,99172.20
2022-09-07T00:19:12.683Z,99168.45
2022-09-07T00:22:25.358Z,99161.19
2022-09-07T00:25:39.173Z,99158.27
2022-09-07T00:28:52.754Z,99171.16
2022-09-07T00:32:05.240Z,99158.84
2022-09-07T00:35:18.173Z,99166.86
2022-09-07T00:38:31.252Z,99166.98
2022-09-07T00:41:43.871Z,99160.30
2022-09-07T00:45:20.983Z,99158.98
2022-09-07T00:48:38.291Z,99167.70
2022-09-07T00:51:57.852Z,99169.81
2022-09-07T00:55:17.003Z,99159.73
2022-09-07T00:58:30.818Z,99153.32
2022-09-07T01:01:45.180Z,99161.42
2022-09-07T01:05:07.570Z,99165.94
2022-09-07T01:08:20.395Z,99148.98
2022-09-07T01:11:32.849Z,99156.42
2022-09-07T01:14:50.045Z,99158.38
2022-09-07T01:18:11.385Z,99153.91
2022-09-07T01:21:31.443Z,99151.09
2022-09-07T01:25:00.228Z,99159.50
2022-09-07T01:28:19.935Z,99144.92
2022-09-07T01:31:38.976Z,99145.23
2022-09-07T01:34:57.008Z,99138.05
2022-09-07T01:38:15.126Z,99144.38
2022-09-07T01:41:33.920Z,99143.81
2022-09-07T01:44:51.328Z,99135.39
2022-09-07T01:48:07.657Z,99137.36
2022-09-07T01:51:21.749Z,99133.73
2022-09-07T01:54:39.305Z,99131.92
2022-09-07T01:57:56.801Z,99128.41
2022-09-07T02:01:15.343Z,99118.03
2022-09-07T02:04:33.944Z,99114.82
2022-09-07T02:07:51.117Z,99116.94
2022-09-07T02:11:08.430Z,99118.20
2022-09-07T02:14:26.854Z,99121.01
2022-09-07T02:17:44.295Z,99112.73
2022-09-07T02:21:00.888Z,99121.09
2022-09-07T02:24:19.920Z,99117.74
2022-09-07T02:27:37.976Z,99113.83
2022-09-07T02:30:52.150Z,99104.19
2022-09-07T02:34:05.488Z,99112.17
2022-09-07T02:37:20.567Z,99114.95
2022-09-07T02:40:33.328Z,99108.38
2022-09-07T02:43:45.862Z,99105.02
2022-09-07T02:47:21.531Z,99104.31
2022-09-07T02:50:57.187Z,99107.38
2022-09-07T02:54:36.784Z,99105.26
2022-09-07T02:57:54.226Z,99108.30
2022-09-07T03:01:12.020Z,99103.23
2022-09-07T03:04:29.536Z,99102.25
2022-09-07T03:07:47.916Z,99104.20
2022-09-07T03:10:59.164Z,99115.44
2022-09-07T03:14:23.247Z,99120.84
2022-09-07T03:17:37.001Z,99128.39
2022-09-07T03:20:50.613Z,99126.97
2022-09-07T03:24:02.576Z,99125.80
2022-09-07T03:27:14.901Z,99127.49
2022-09-07T03:30:27.225Z,99128.02
2022-09-07T03:33:40.848Z,99123.06
2022-09-07T03:36:54.056Z,99115.05
2022-09-07T03:40:06.313Z,99112.40
2022-09-07T03:43:21.099Z,99120.36
2022-09-07T03:46:38.432Z,99118.94
2022-09-07T03:49:51.414Z,99118.42
2022-09-07T03:53:03.528Z,99118.94
2022-09-07T03:56:18.314Z,99123.06
2022-09-07T03:59:30.722Z,99134.28
2022-09-07T04:02:42.671Z,99126.89
2022-09-07T04:05:54.580Z,99119.18
2022-09-07T04:09:10.176Z,99114.39
2022-09-07T04:12:22.037Z,99115.30
2022-09-07T04:15:43.993Z,99126.52
2022-09-07T04:18:57.838Z,99127.61
2022-09-07T04:22:09.662Z,99121.45
2022-09-07T04:25:22.265Z,99124.67
2022-09-07T04:28:34.969Z,99136.00
2022-09-07T04:31:47.790Z,99132.20
2022-09-07T04:34:59.809Z,99135.56
2022-09-07T04:38:13.167Z,99140.16
2022-09-07T04:41:25.927Z,99151.54
2022-09-07T04:44:38.048Z,99153.09
2022-09-07T04:47:54.513Z,99148.83
2022-09-07T04:51:13.984Z,99147.98
2022-09-07T04:54:26.569Z,99155.80
2022-09-07T04:57:38.515Z,99155.28
2022-09-07T05:00:50.838Z,99139.13
2022-09-07T05:04:05.300Z,99134.75
2022-09-07T05:07:17.211Z,99128.77
2022-09-07T05:10:29.149Z,99126.16
2022-09-07T05:13:41.963Z,99122.83
2022-09-07T05:16:53.936Z,99128.71
2022-09-07T05:20:06.322Z,99129.73
2022-09-07T05:23:18.135Z,99127.95
2022-09-07T05:26:33.004Z,99129.38
2022-09-07T05:32:58.563Z,99124.71
2022-09-07T05:36:12.750Z,99128.34
2022-09-07T05:39:24.671Z,99130.49
2022-09-07T05:42:36.382Z,99125.59
2022-09-07T05:45:48.145Z,99131.05
2022-09-07T05:49:00.526Z,99135.66
2022-09-07T05:52:12.958Z,99128.69
2022-09-07T05:55:31.420Z,99138.87
2022-09-07T05:58:39.507Z,99127.64
2022-09-07T06:01:51.404Z,99124.88
2022-09-07T06:05:03.133Z,99119.36
2022-09-07T06:08:15.100Z,99124.25
2022-09-07T06:11:29.564Z,99112.22
2022-09-07T06:14:41.197Z,99111.20
2022-09-07T06:17:53.767Z,99114.92
2022-09-07T06:21:38.122Z,99120.39
2022-09-07T06:24:58.320Z,99117.28
2022-09-07T06:28:12.946Z,99117.41
2022-09-07T06:31:27.845Z,99107.73
2022-09-07T06:34:42.000Z,99108.97
2022-09-07T06:45:00.932Z,99096.63
2022-09-07T06:48:12.841Z,99100.53
2022-09-07T06:51:26.863Z,99097.34
2022-09-07T06:58:00.961Z,99091.34
2022-09-07T07:01:17.054Z,99099.34
2022-09-07T07:04:29.215Z,99101.58
2022-09-07T07:07:41.752Z,99101.62
2022-09-07T07:10:53.975Z,99097.90
2022-09-07T07:14:07.829Z,99098.09
2022-09-07T07:17:19.569Z,99091.52
2022-09-07T07:20:31.474Z,99089.22
2022-09-07T07:23:43.685Z,99072.27
2022-09-07T07:26:55.946Z,99072.27
2022-09-07T07:30:07.762Z,99079.58
2022-09-07T07:33:19.551Z,99076.52
2022-09-07T07:36:33.140Z,99075.59
2022-09-07T07:42:59.117Z,99083.27
2022-09-07T07:46:12.207Z,99078.02
2022-09-07T07:49:23.917Z,99072.94
2022-09-07T07:55:55.887Z,99070.45
2022-09-07T07:59:07.545Z,99061.02
2022-09-07T08:02:22.187Z,99070.41
2022-09-07T08:05:33.858Z,99067.09
2022-09-07T08:08:46.335Z,99065.59
2022-09-07T08:11:58.035Z,99064.16
2022-09-07T08:15:10.625Z,99060.02
2022-09-07T08:18:23.412Z,99065.27
2022-09-07T08:21:35.164Z,99052.61
2022-09-07T08:24:47.138Z,99054.06
2022-09-07T08:27:58.766Z,99051.34
2022-09-07T08:31:14.773Z,99056.35
2022-09-07T08:34:27.119Z,99058.23
2022-09-07T08:37:38.720Z,99056.19
2022-09-07T08:40:50.629Z,99054.29
2022-09-07T08:44:07.253Z,99045.09
2022-09-07T08:47:29.641Z,99034.41
2022-09-07T08:50:48.100Z,99035.80
2022-09-07T08:54:00.135Z,99028.36
2022-09-07T08:57:20.852Z,99027.87
2022-09-07T09:00:27.710Z,99017.07
2022-09-07T09:04:15.610Z,99010.34
2022-09-07T09:07:07.360Z,99011.91
2022-09-07T09:10:33.559Z,99008.06
2022-09-07T09:13:58.263Z,99005.83
2022-09-07T09:17:15.591Z,98994.07
2022-09-07T09:20:35.579Z,98998.59
2022-09-07T09:23:50.704Z,98989.38
2022-09-07T09:27:06.196Z,98992.39
2022-09-07T09:30:24.256Z,98994.14
2022-09-07T09:33:38.048Z,98988.81
2022-09-07T09:36:53.919Z,98992.05
2022-09-07T09:40:07.124Z,98988.76
2022-09-07T09:43:25.178Z,98984.17
2022-09-07T09:46:40.469Z,98984.53
2022-09-07T09:49:53.732Z,98980.52
2022-09-07T09:53:07.086Z,98980.42
2022-09-07T09:56:18.731Z,98976.95
2022-09-07T10:06:02.566Z,98968.84
2022-09-07T10:09:24.112Z,98963.27
2022-09-07T10:12:39.595Z,98958.74
2022-09-07T10:15:58.395Z,98959.13
2022-09-07T10:19:10.279Z,98954.62
2022-09-07T10:22:41.513Z,98963.00
2022-09-07T10:25:53.593Z,98955.75
2022-09-07T10:29:24.643Z,98958.38
2022-09-07T10:32:50.871Z,98942.98
2022-09-07T10:36:08.010Z,98947.48
2022-09-07T10:39:25.397Z,98935.91
2022-09-07T10:42:39.847Z,98942.06
2022-09-07T10:46:55.906Z,98933.06
2022-09-07T10:49:34.505Z,98947.27
2022-09-07T10:52:47.964Z,98941.47
2022-09-07T10:56:07.835Z,98938.16
2022-09-07T11:03:26.150Z,98934.23
2022-09-07T11:06:39.398Z,98934.35
2022-09-07T11:10:02.037Z,98931.98
2022-09-07T11:13:18.559Z,98929.86
2022-09-07T11:19:56.415Z,98928.23
2022-09-07T11:23:18.898Z,98920.27
2022-09-07T11:26:36.577Z,98923.47
2022-09-07T11:29:50.346Z,98914.92
2022-09-07T11:33:13.588Z,98916.20
2022-09-07T11:36:27.612Z,98910.54
2022-09-07T11:39:45.466Z,98907.22
2022-09-07T11:43:00.721Z,98913.73
2022-09-07T11:46:17.466Z,98913.75
2022-09-07T11:49:31.109Z,98906.76
2022-09-07T11:52:47.087Z,98909.39
2022-09-07T11:56:04.159Z,98901.31
2022-09-07T11:59:36.645Z,98898.22
2022-09-07T12:03:11.795Z,98899.92
2022-09-07T12:06:47.870Z,98896.33
2022-09-07T12:10:43.363Z,98882.55
2022-09-07T12:14:19.325Z,98883.22
2022-09-07T12:17:58.744Z,98877.97
2022-09-07T12:21:18.187Z,98871.13
2022-09-07T12:24:49.667Z,98868.63
2022-09-07T12:28:04.289Z,98863.94
2022-09-07T12:31:19.945Z,98866.20
2022-09-07T12:35:05.758Z,98856.83
2022-09-07T12:39:25.101Z,98859.39
2022-09-07T12:42:37.897Z,98857.14
2022-09-07T12:46:00.161Z,98857.84
2022-09-07T12:49:21.113Z,98853.08
2022-09-07T12:53:11.206Z,98851.97
2022-09-07T12:56:39.612Z,98853.14
2022-09-07T13:00:05.317Z,98853.73
2022-09-07T13:03:52.606Z,98850.36
2022-09-07T13:07:33.064Z,98853.77
2022-09-07T13:10:48.161Z,98851.41
2022-09-07T13:14:09.426Z,98849.16
2022-09-07T13:17:50.534Z,98831.02
2022-09-07T13:21:46.104Z,98830.25
2022-09-07T13:24:59.757Z,98828.34
2022-09-07T13:28:23.462Z,98826.75
2022-09-07T13:31:53.057Z,98821.56
2022-09-07T13:35:27.772Z,98818.00
2022-09-07T13:38:44.176Z,98814.69
2022-09-07T13:42:00.946Z,98819.50
2022-09-07T13:45:33.209Z,98813.47
2022-09-07T13:48:50.245Z,98813.66
2022-09-07T13:52:07.782Z,98807.05
2022-09-07T13:55:32.566Z,98801.14
2022-09-07T13:58:48.154Z,98799.65
2022-09-07T14:02:00.784Z,98795.29
2022-09-07T14:05:15.948Z,98792.90
2022-09-07T14:08:39.675Z,98801.73
2022-09-07T14:11:52.478Z,98803.09
2022-09-07T14:15:25.153Z,98797.23
2022-09-07T14:18:38.517Z,98798.55
2022-09-07T14:22:02.345Z,98802.70
2022-09-07T14:25:22.342Z,98793.23
2022-09-07T14:28:42.386Z,98792.55
2022-09-07T14:31:54.619Z,98793.72
2022-09-07T14:35:08.969Z,98789.02
2022-09-07T14:41:43.217Z,98785.56
2022-09-07T14:44:57.743Z,98788.03
2022-09-07T14:48:18.885Z,98782.14
2022-09-07T14:51:36.598Z,98782.35
2022-09-07T14:54:47.567Z,98783.19
2022-09-07T14:58:23.336Z,98789.70
2022-09-07T15:01:38.827Z,98784.13
2022-09-07T15:04:49.960Z,98780.47
2022-09-07T15:11:44.627Z,98782.59
2022-09-07T15:14:56.537Z,98775.38
2022-09-07T15:18:12.222Z,98783.29
2022-09-07T15:21:24.121Z,98777.36
2022-09-07T15:50:23.616Z,98761.95
2022-09-07T16:00:04.571Z,98757.02
2022-09-07T16:03:19.883Z,98756.37
2022-09-07T16:06:35.780Z,98746.27
2022-09-07T16:09:46.862Z,98747.28
2022-09-07T16:13:02.322Z,98743.06
2022-09-07T16:16:15.754Z,98752.53
2022-09-07T16:19:29.022Z,98737.84
2022-09-07T16:26:07.403Z,98737.88
2022-09-07T19:19:57.308Z,98795.80
2022-09-07T19:23:16.361Z,98786.66
2022-09-07T19:26:29.397Z,98783.69
2022-09-07T19:29:41.208Z,98781.59
2022-09-07T19:32:52.866Z,98772.05
2022-09-07T19:36:09.204Z,98781.91
2022-09-07T19:39:20.953Z,98781.31
2022-09-07T19:42:34.826Z,98780.22
2022-09-07T19:45:47.232Z,98785.98
2022-09-07T19:48:59.158Z,98790.98
2022-09-07T19:52:11.357Z,98784.27
2022-09-07T19:55:23.785Z,98782.87
2022-09-07T19:58:38.218Z,98783.33
2022-09-07T20:01:52.183Z,98777.70
2022-09-07T20:05:03.992Z,98784.14
